Check out our new BloomSky Weather System.

Active alerts


No alerts


Thunder radar  blitzortung!


Rain radar more information rain snow radar


Visit our other weather sites:

Template documentation
and downloads

And another site



Weather Underground History page Text

Daily Summary for November 29, 2017 Units:  English    Metric   Both
« Previous Day
Next Day »
Daily Weekly Monthly Yearly Custom
  High: Low: Average:
Temperature: 74.8 °F 52.7 °F 63.4 °F
Dew Point: 66.0 °F 49.6 °F 58.8 °F
Humidity: 100 % 56 % 87 %
Wind Speed: 6.0 mph 0.0 mph 0.6 mph
Wind Gust: 9.0 mph - -
Wind:- - WSW
Pressure: 30.22 in 30.11 in -
Precipitation: 0.01 in    
Historical Graphs
 
 
Tabular Data for November 29, 2017
Time Temperature Dew Point Pressure Wind Wind Speed Wind Gust Humidity Rainfall Rate (Hourly)
00:04 63.7 °F 63.1 °F 30.15 in Calm   2.0 mph 98 % 0.00 in
00:14 63.7 °F 63.1 °F 30.15 in Calm   3.0 mph 98 % 0.00 in
00:24 63.7 °F 63.1 °F 30.15 in ESE 2.0 mph 3.0 mph 98 % 0.00 in
00:34 63.7 °F 63.1 °F 30.15 in Calm   3.0 mph 98 % 0.00 in
00:39 63.7 °F 63.1 °F 30.15 in Calm   2.0 mph 98 % 0.00 in
00:49 63.7 °F 63.1 °F 30.15 in Calm   2.0 mph 98 % 0.00 in
00:59 63.7 °F 63.1 °F 30.15 in Calm   2.0 mph 98 % 0.00 in
01:04 63.5 °F 63.0 °F 30.15 in Calm   1.0 mph 98 % 0.00 in
01:14 63.3 °F 62.8 °F 30.15 in Calm   3.0 mph 98 % 0.00 in
01:19 63.1 °F 62.6 °F 30.15 in Calm   3.0 mph 98 % 0.00 in
01:24 63.1 °F 62.6 °F 30.15 in Calm   3.0 mph 98 % 0.00 in
01:29 63.1 °F 62.6 °F 30.15 in Calm   1.0 mph 98 % 0.00 in
01:34 63.0 °F 62.4 °F 30.15 in NNE 1.0 mph 1.0 mph 98 % 0.00 in
01:49 62.8 °F 62.2 °F 30.15 in Calm   1.0 mph 98 % 0.00 in
01:54 62.8 °F 62.2 °F 30.15 in Calm   1.0 mph 98 % 0.00 in
02:04 62.8 °F 62.2 °F 30.15 in SE 1.0 mph 1.0 mph 98 % 0.00 in
02:09 62.8 °F 62.2 °F 30.14 in SE 1.0 mph 1.0 mph 98 % 0.00 in
02:15 62.6 °F 62.2 °F 30.14 in Calm   2.0 mph 99 % 0.00 in
02:20 62.6 °F 62.2 °F 30.14 in Calm   2.0 mph 99 % 0.00 in
02:25 62.6 °F 62.2 °F 30.14 in Calm   2.0 mph 99 % 0.00 in
02:35 62.6 °F 62.2 °F 30.14 in Calm   2.0 mph 99 % 0.00 in
02:40 62.4 °F 62.1 °F 30.14 in Calm   1.0 mph 99 % 0.00 in
02:45 62.4 °F 62.1 °F 30.14 in SE 1.0 mph 4.0 mph 99 % 0.00 in
02:50 62.2 °F 61.9 °F 30.14 in Calm   4.0 mph 99 % 0.00 in
02:55 62.1 °F 61.7 °F 30.14 in Calm   4.0 mph 99 % 0.00 in
03:00 62.1 °F 61.7 °F 30.14 in Calm   2.0 mph 99 % 0.00 in
03:05 62.1 °F 61.7 °F 30.14 in ESE 2.0 mph 2.0 mph 99 % 0.00 in
03:25 61.9 °F 61.5 °F 30.14 in Calm   2.0 mph 99 % 0.00 in
03:30 61.9 °F 61.5 °F 30.14 in Calm   2.0 mph 99 % 0.00 in
03:40 61.9 °F 61.5 °F 30.14 in Calm   1.0 mph 99 % 0.00 in
03:45 61.9 °F 61.5 °F 30.14 in Calm   1.0 mph 99 % 0.00 in
03:50 61.9 °F 61.5 °F 30.14 in Calm   1.0 mph 99 % 0.00 in
03:55 61.9 °F 61.5 °F 30.14 in Calm   1.0 mph 99 % 0.00 in
04:05 61.7 °F 61.3 °F 30.14 in Calm   1.0 mph 99 % 0.00 in
04:16 61.7 °F 61.3 °F 30.14 in SE 1.0 mph 2.0 mph 99 % 0.00 in
04:20 61.7 °F 61.3 °F 30.14 in Calm   2.0 mph 99 % 0.00 in
04:25 61.5 °F 61.2 °F 30.14 in Calm   2.0 mph 99 % 0.00 in
04:35 61.5 °F 61.2 °F 30.14 in Calm   1.0 mph 99 % 0.00 in
04:50 61.5 °F 61.2 °F 30.14 in Calm   2.0 mph 99 % 0.00 in
05:00 61.5 °F 61.2 °F 30.14 in Calm   1.0 mph 99 % 0.00 in
05:05 61.5 °F 61.2 °F 30.14 in Calm   1.0 mph 99 % 0.00 in
05:10 61.5 °F 61.2 °F 30.14 in Calm   1.0 mph 99 % 0.00 in
05:15 61.5 °F 61.2 °F 30.14 in Calm   1.0 mph 99 % 0.00 in
05:20 61.5 °F 61.2 °F 30.15 in Calm   1.0 mph 99 % 0.00 in
05:25 61.5 °F 61.2 °F 30.15 in Calm   1.0 mph 99 % 0.00 in
05:30 61.5 °F 61.2 °F 30.15 in Calm     99 % 0.00 in
05:35 61.5 °F 61.2 °F 30.15 in Calm     99 % 0.00 in
05:40 61.5 °F 61.2 °F 30.15 in Calm   1.0 mph 99 % 0.00 in
05:45 61.5 °F 61.2 °F 30.15 in Calm   1.0 mph 99 % 0.00 in
05:50 61.5 °F 61.2 °F 30.15 in North 1.0 mph 1.0 mph 99 % 0.00 in
05:55 61.5 °F 61.2 °F 30.16 in Calm   1.0 mph 99 % 0.00 in
06:00 61.5 °F 61.2 °F 30.16 in NNW 1.0 mph 1.0 mph 99 % 0.00 in
06:15 61.3 °F 61.0 °F 30.17 in Calm   2.0 mph 99 % 0.00 in
06:20 61.2 °F 60.8 °F 30.17 in Calm   2.0 mph 99 % 0.00 in
06:25 61.2 °F 60.8 °F 30.17 in Calm   2.0 mph 99 % 0.00 in
06:36 61.2 °F 60.8 °F 30.17 in Calm   1.0 mph 99 % 0.00 in
06:41 61.0 °F 60.6 °F 30.17 in Calm   1.0 mph 99 % 0.00 in
06:46 61.0 °F 60.6 °F 30.17 in Calm   1.0 mph 99 % 0.00 in
06:51 61.0 °F 60.6 °F 30.17 in Calm   1.0 mph 99 % 0.00 in
07:01 61.0 °F 60.6 °F 30.17 in Calm   1.0 mph 99 % 0.00 in
07:06 61.0 °F 60.6 °F 30.17 in Calm   1.0 mph 99 % 0.01 in
07:16 61.0 °F 61.0 °F 30.18 in Calm   1.0 mph 100 % 0.01 in
07:31 60.6 °F 60.3 °F 30.18 in NW 1.0 mph 2.0 mph 99 % 0.01 in
07:36 60.4 °F 60.1 °F 30.18 in NNE 2.0 mph 2.0 mph 99 % 0.01 in
07:41 60.6 °F 60.6 °F 30.19 in Calm   2.0 mph 100 % 0.01 in
08:01 60.4 °F 60.1 °F 30.19 in NNW 1.0 mph 3.0 mph 99 % 0.01 in
08:06 60.3 °F 59.9 °F 30.19 in NNW 1.0 mph 2.0 mph 99 % 0.00 in
08:11 60.1 °F 59.7 °F 30.19 in NW 2.0 mph 3.0 mph 99 % 0.00 in
08:16 60.1 °F 59.7 °F 30.20 in NW 1.0 mph 4.0 mph 99 % 0.00 in
08:21 60.3 °F 60.3 °F 30.20 in NNW 4.0 mph 4.0 mph 100 % 0.00 in
08:26 60.1 °F 60.1 °F 30.20 in NNW 1.0 mph 5.0 mph 100 % 0.00 in
08:31 60.1 °F 59.7 °F 30.21 in Calm   5.0 mph 99 % 0.00 in
08:36 59.7 °F 59.4 °F 30.21 in Calm   5.0 mph 99 % 0.00 in
08:41 59.7 °F 59.4 °F 30.21 in ENE 1.0 mph 4.0 mph 99 % 0.00 in
08:46 59.5 °F 59.2 °F 30.21 in NW 3.0 mph 4.0 mph 99 % 0.00 in
08:56 59.4 °F 59.0 °F 30.21 in North 1.0 mph 6.0 mph 99 % 0.00 in
09:06 59.4 °F 59.4 °F 30.22 in Calm   4.0 mph 100 % 0.00 in
09:11 59.5 °F 59.5 °F 30.22 in NNW 2.0 mph 3.0 mph 100 % 0.00 in
09:26 59.7 °F 59.7 °F 30.22 in NW 2.0 mph 5.0 mph 100 % 0.00 in
09:36 59.7 °F 59.7 °F 30.22 in NNW 3.0 mph 6.0 mph 100 % 0.00 in
09:41 59.9 °F 59.9 °F 30.22 in NNW 2.0 mph 6.0 mph 100 % 0.00 in
09:46 60.1 °F 60.1 °F 30.22 in NW 1.0 mph 6.0 mph 100 % 0.00 in
09:51 60.1 °F 60.1 °F 30.22 in NNW 1.0 mph 5.0 mph 100 % 0.00 in
09:56 60.3 °F 60.3 °F 30.22 in WNW 1.0 mph 4.0 mph 100 % 0.00 in
10:01 60.4 °F 60.4 °F 30.22 in NNW 1.0 mph 4.0 mph 100 % 0.00 in
10:06 61.2 °F 61.2 °F 30.21 in Calm   4.0 mph 100 % 0.00 in
10:11 61.3 °F 61.3 °F 30.21 in Calm   3.0 mph 100 % 0.00 in
10:16 61.7 °F 61.7 °F 30.21 in NNW 3.0 mph 3.0 mph 100 % 0.00 in
10:21 61.9 °F 61.9 °F 30.21 in NNE 2.0 mph 3.0 mph 100 % 0.00 in
10:31 62.4 °F 62.4 °F 30.21 in NW 1.0 mph 3.0 mph 100 % 0.00 in
10:36 62.2 °F 62.2 °F 30.21 in Calm   3.0 mph 100 % 0.00 in
10:41 62.8 °F 62.8 °F 30.21 in North 2.0 mph 3.0 mph 100 % 0.00 in
10:46 62.8 °F 62.8 °F 30.21 in NNW 1.0 mph 3.0 mph 100 % 0.00 in
10:51 62.8 °F 62.8 °F 30.21 in NW 1.0 mph 5.0 mph 100 % 0.00 in
11:01 63.1 °F 63.1 °F 30.20 in Calm   5.0 mph 100 % 0.00 in
11:06 63.3 °F 63.3 °F 30.20 in NNW 2.0 mph 4.0 mph 100 % 0.00 in
11:13 63.7 °F 63.7 °F 30.20 in Calm   4.0 mph 100 % 0.00 in
11:18 64.0 °F 64.0 °F 30.20 in North 1.0 mph 4.0 mph 100 % 0.00 in
11:23 64.2 °F 64.2 °F 30.20 in Calm   4.0 mph 100 % 0.00 in
11:28 64.0 °F 63.7 °F 30.19 in NNE 1.0 mph 3.0 mph 99 % 0.00 in
11:43 64.9 °F 64.6 °F 30.19 in Calm   3.0 mph 99 % 0.00 in
11:48 65.1 °F 64.8 °F 30.19 in Calm   3.0 mph 99 % 0.00 in
11:53 65.5 °F 65.1 °F 30.18 in West 1.0 mph 4.0 mph 99 % 0.00 in
11:58 65.7 °F 65.1 °F 30.18 in Calm   4.0 mph 98 % 0.00 in
12:18 66.4 °F 64.9 °F 30.17 in NNW 1.0 mph 5.0 mph 95 % 0.00 in
12:23 66.9 °F 65.1 °F 30.17 in Calm   5.0 mph 94 % 0.00 in
12:28 67.6 °F 65.3 °F 30.17 in NW 1.0 mph 4.0 mph 92 % 0.00 in
12:33 68.0 °F 65.3 °F 30.16 in NE 1.0 mph 4.0 mph 91 % 0.00 in
12:38 68.5 °F 64.8 °F 30.16 in NW 1.0 mph 5.0 mph 88 % 0.00 in
12:53 69.4 °F 65.1 °F 30.15 in Calm   6.0 mph 86 % 0.00 in
12:58 70.2 °F 65.5 °F 30.14 in SE 1.0 mph 3.0 mph 85 % 0.00 in
13:03 70.9 °F 65.8 °F 30.14 in SW 2.0 mph 3.0 mph 84 % 0.00 in
13:08 71.8 °F 66.0 °F 30.14 in SSE 1.0 mph 4.0 mph 82 % 0.00 in
13:18 73.0 °F 65.8 °F 30.14 in SW 3.0 mph 5.0 mph 78 % 0.00 in
13:23 74.1 °F 66.0 °F 30.13 in WNW 4.0 mph 5.0 mph 76 % 0.00 in
13:28 74.1 °F 66.0 °F 30.13 in North 3.0 mph 5.0 mph 76 % 0.00 in
13:33 73.6 °F 64.8 °F 30.13 in NNW 2.0 mph 5.0 mph 74 % 0.00 in
13:38 73.0 °F 64.9 °F 30.13 in North 2.0 mph 7.0 mph 76 % 0.00 in
13:40 73.0 °F 64.2 °F 30.13 in Calm   7.0 mph 74 % 0.00 in
13:50 73.2 °F 63.7 °F 30.13 in Calm   4.0 mph 72 % 0.00 in
13:55 73.2 °F 63.3 °F 30.12 in Calm   3.0 mph 71 % 0.00 in
14:00 73.4 °F 63.9 °F 30.13 in NW 1.0 mph 3.0 mph 72 % 0.00 in
14:05 73.8 °F 63.3 °F 30.12 in NW 2.0 mph 5.0 mph 70 % 0.00 in
14:18 74.1 °F 62.4 °F 30.12 in NW 2.0 mph 5.0 mph 67 % 0.00 in
14:33 74.5 °F 61.5 °F 30.12 in NNW 6.0 mph 9.0 mph 64 % 0.00 in
14:43 74.1 °F 60.3 °F 30.12 in NNE 3.0 mph 9.0 mph 62 % 0.00 in
14:48 74.1 °F 60.3 °F 30.12 in North 3.0 mph 7.0 mph 62 % 0.00 in
14:53 73.9 °F 59.7 °F 30.12 in NNW 3.0 mph 6.0 mph 61 % 0.00 in
14:58 73.9 °F 59.7 °F 30.12 in NNE 1.0 mph 6.0 mph 61 % 0.00 in
15:08 73.9 °F 59.7 °F 30.12 in NW 2.0 mph 8.0 mph 61 % 0.00 in
15:18 74.5 °F 59.2 °F 30.12 in North 3.0 mph 8.0 mph 59 % 0.00 in
15:23 73.9 °F 58.6 °F 30.12 in NW 2.0 mph 7.0 mph 59 % 0.00 in
15:34 74.5 °F 59.2 °F 30.12 in Calm   7.0 mph 59 % 0.00 in
15:39 74.8 °F 59.0 °F 30.12 in Calm   6.0 mph 58 % 0.00 in
15:44 74.8 °F 58.1 °F 30.12 in North 3.0 mph 4.0 mph 56 % 0.00 in
15:49 74.3 °F 57.6 °F 30.11 in NW 2.0 mph 4.0 mph 56 % 0.00 in
15:54 74.1 °F 57.9 °F 30.11 in Calm   4.0 mph 57 % 0.00 in
15:59 73.8 °F 57.6 °F 30.11 in NNW 2.0 mph 4.0 mph 57 % 0.00 in
16:04 73.4 °F 57.2 °F 30.12 in NW 1.0 mph 4.0 mph 57 % 0.00 in
16:09 73.0 °F 56.8 °F 30.12 in Calm   5.0 mph 57 % 0.00 in
16:14 73.0 °F 57.4 °F 30.11 in North 1.0 mph 5.0 mph 58 % 0.00 in
16:19 72.9 °F 56.7 °F 30.12 in Calm   5.0 mph 57 % 0.00 in
16:24 72.7 °F 57.0 °F 30.11 in Calm   5.0 mph 58 % 0.00 in
16:29 72.7 °F 57.0 °F 30.11 in NNW 1.0 mph 4.0 mph 58 % 0.00 in
16:34 72.3 °F 56.7 °F 30.11 in NNW 2.0 mph 3.0 mph 58 % 0.00 in
16:39 72.1 °F 57.0 °F 30.11 in Calm   3.0 mph 59 % 0.00 in
16:44 72.0 °F 56.8 °F 30.12 in NW 1.0 mph 3.0 mph 59 % 0.00 in
16:50 71.8 °F 57.2 °F 30.12 in Calm   3.0 mph 60 % 0.00 in
16:55 71.4 °F 56.8 °F 30.12 in Calm   2.0 mph 60 % 0.00 in
17:00 71.1 °F 56.5 °F 30.12 in Calm   2.0 mph 60 % 0.00 in
17:05 70.9 °F 56.8 °F 30.12 in Calm   2.0 mph 61 % 0.00 in
17:10 70.5 °F 56.5 °F 30.12 in Calm   2.0 mph 61 % 0.00 in
17:15 70.2 °F 56.1 °F 30.12 in Calm   1.0 mph 61 % 0.00 in
17:20 69.6 °F 55.9 °F 30.12 in Calm   1.0 mph 62 % 0.00 in
17:30 68.5 °F 55.4 °F 30.12 in Calm   1.0 mph 63 % 0.00 in
17:40 67.3 °F 54.7 °F 30.12 in Calm   1.0 mph 64 % 0.00 in
17:45 66.4 °F 54.7 °F 30.12 in Calm     66 % 0.00 in
18:00 64.0 °F 54.1 °F 30.12 in Calm     70 % 0.00 in
18:05 63.5 °F 54.3 °F 30.12 in Calm     72 % 0.00 in
18:10 63.1 °F 54.3 °F 30.12 in Calm     73 % 0.00 in
18:15 63.1 °F 54.7 °F 30.13 in Calm     74 % 0.00 in
18:30 63.0 °F 54.5 °F 30.13 in Calm     74 % 0.00 in
18:35 62.8 °F 54.7 °F 30.14 in Calm     75 % 0.00 in
18:45 62.2 °F 54.5 °F 30.14 in Calm     76 % 0.00 in
18:50 61.9 °F 54.3 °F 30.14 in Calm     76 % 0.00 in
18:55 61.3 °F 54.5 °F 30.14 in Calm     78 % 0.00 in
19:05 61.2 °F 54.7 °F 30.15 in Calm   1.0 mph 79 % 0.00 in
19:10 61.0 °F 54.5 °F 30.14 in Calm   1.0 mph 79 % 0.00 in
19:15 60.8 °F 54.3 °F 30.14 in Calm   1.0 mph 79 % 0.00 in
19:30 59.7 °F 54.0 °F 30.15 in Calm     81 % 0.00 in
19:35 59.5 °F 54.0 °F 30.15 in Calm     82 % 0.00 in
19:45 59.2 °F 54.0 °F 30.15 in Calm     83 % 0.00 in
19:51 59.2 °F 54.0 °F 30.15 in WNW 1.0 mph   83 % 0.00 in
20:01 60.3 °F 52.7 °F 30.15 in Calm   2.0 mph 76 % 0.00 in
20:11 61.2 °F 52.0 °F 30.15 in Calm   2.0 mph 72 % 0.00 in
20:16 61.2 °F 51.3 °F 30.15 in Calm   2.0 mph 70 % 0.00 in
20:21 61.0 °F 51.1 °F 30.15 in Calm   1.0 mph 70 % 0.00 in
20:26 60.4 °F 50.5 °F 30.15 in Calm   1.0 mph 70 % 0.00 in
20:41 59.4 °F 51.1 °F 30.15 in Calm     74 % 0.00 in
20:46 59.0 °F 51.4 °F 30.15 in Calm     76 % 0.00 in
20:51 58.6 °F 51.8 °F 30.15 in Calm     78 % 0.00 in
20:56 58.5 °F 51.6 °F 30.15 in Calm     78 % 0.00 in
21:01 58.3 °F 51.4 °F 30.15 in Calm     78 % 0.00 in
21:06 57.7 °F 51.3 °F 30.15 in Calm     79 % 0.00 in
21:11 57.6 °F 51.4 °F 30.16 in Calm     80 % 0.00 in
21:16 57.2 °F 51.1 °F 30.15 in Calm     80 % 0.00 in
21:21 57.0 °F 51.3 °F 30.16 in Calm     81 % 0.00 in
21:26 56.7 °F 51.3 °F 30.16 in Calm     82 % 0.00 in
21:31 56.5 °F 51.4 °F 30.16 in Calm     83 % 0.00 in
21:41 56.3 °F 51.4 °F 30.16 in Calm     84 % 0.00 in
21:46 55.9 °F 50.9 °F 30.16 in Calm     83 % 0.00 in
21:51 55.6 °F 50.9 °F 30.17 in Calm     84 % 0.00 in
21:56 55.2 °F 50.7 °F 30.17 in Calm     85 % 0.00 in
22:06 54.7 °F 50.2 °F 30.16 in Calm     85 % 0.00 in
22:11 54.7 °F 50.5 °F 30.17 in Calm     86 % 0.00 in
22:16 54.7 °F 50.5 °F 30.17 in Calm     86 % 0.00 in
22:22 54.7 °F 50.5 °F 30.17 in Calm     86 % 0.00 in
22:27 54.7 °F 50.5 °F 30.17 in Calm     86 % 0.00 in
22:32 54.9 °F 50.7 °F 30.17 in Calm     86 % 0.00 in
22:37 54.9 °F 51.1 °F 30.17 in Calm     87 % 0.00 in
22:42 54.9 °F 51.1 °F 30.17 in Calm     87 % 0.00 in
22:47 54.9 °F 51.1 °F 30.17 in Calm     87 % 0.00 in
22:57 54.3 °F 50.2 °F 30.17 in Calm     86 % 0.00 in
23:07 53.8 °F 50.4 °F 30.17 in Calm     88 % 0.00 in
23:12 53.8 °F 50.4 °F 30.17 in Calm     88 % 0.00 in
23:22 53.4 °F 50.0 °F 30.17 in Calm     88 % 0.00 in
23:27 53.2 °F 50.0 °F 30.16 in Calm     89 % 0.00 in
23:32 53.1 °F 49.8 °F 30.16 in Calm     89 % 0.00 in
23:37 52.9 °F 49.6 °F 30.16 in Calm     89 % 0.00 in
23:42 52.9 °F 50.0 °F 30.16 in Calm     90 % 0.00 in
23:52 52.7 °F 49.8 °F 30.16 in Calm     90 % 0.00 in
Spring, Texas: Villages of Bridgestone
Compliments of Weather Underground - 2.5 mb

Script developed by  Jim McMurry - jmcmurry@mwt.net Adapted for the template by  Wim van der Kuil - Leuven-Template.eu

You find our weather info also at:

UK Metoffice

WeatherCloud

Weather Underground

Mid-South Weather Network

AWEKAS

Citizen Weather Observer Program (CWOP)

HAMweather, WeatherForYou, PWS Weather

Equipment we use:

Weather-station
Davis Vantage Vue

Weather-program
Meteohub

Weather-server
Debian 7.9 x86 (Guest)

Provider
DreamHost

Davis Vantage Vue

Meteohub

Debian 7.9 x86 (Guest)

DreamHost